Time;durP1;ratioP1;P1;durP2;ratioP2;P2;SDS_P1;SDS_P2;PMS_P1;PMS_P2;Temp;Humidity;BMP_temperature;BMP_pressure;BME280_temperature;BME280_humidity;BME280_pressure;Samples;Min_cycle;Max_cycle;Signal;HPM_P1;HPM_P2
2021/01/12 00:01:53;;;;;;;55.25;29.15;;;;;;;-0.12;70.70;100067.31;2095594;81;29162;-62
2021/01/12 00:04:55;;;;;;;62.70;31.48;;;;;;;-0.10;70.64;100061.59;2033963;85;27760;-63
2021/01/12 00:07:57;;;;;;;63.80;28.60;;;;;;;-0.06;70.75;100072.06;2066866;85;28676;-63
2021/01/12 00:11:10;;;;;;;59.63;29.93;;;;;;;0.04;70.71;100079.89;2292939;77;37189;-62
2021/01/12 00:14:30;;;;;;;62.40;28.83;;;;;;;0.03;70.77;100084.73;2228379;78;27729;-62
2021/01/12 00:17:33;;;;;;;67.03;29.77;;;;;;;0.04;70.73;100072.85;2232296;78;28819;-62
2021/01/12 00:20:36;;;;;;;61.35;29.57;;;;;;;0.07;70.85;100063.61;2191304;78;31000;-62
2021/01/12 00:23:38;;;;;;;63.28;27.65;;;;;;;0.08;70.87;100057.45;2242547;78;34066;-62
2021/01/12 00:26:40;;;;;;;57.48;28.90;;;;;;;0.10;70.88;100046.46;2170969;80;29304;-63
2021/01/12 00:29:43;;;;;;;57.15;27.13;;;;;;;0.13;70.79;100049.50;2189030;78;27619;-62
2021/01/12 00:32:46;;;;;;;57.55;27.60;;;;;;;0.11;70.68;100033.72;2171626;78;28603;-62
2021/01/12 00:35:48;;;;;;;53.75;27.35;;;;;;;0.12;70.62;100027.56;2123348;80;32774;-65
2021/01/12 00:38:50;;;;;;;61.90;29.42;;;;;;;0.13;70.66;100020.52;2173285;80;33150;-72
2021/01/12 00:41:55;;;;;;;57.08;27.55;;;;;;;0.16;70.78;100023.13;2199900;78;28872;-67
2021/01/12 00:44:58;;;;;;;;;;;;;;;0.19;70.82;100030.11;2239901;78;27661;-67
2021/01/12 00:48:00;;;;;;;60.35;28.42;;;;;;;0.18;70.62;100037.59;2182346;78;28252;-69
2021/01/12 00:51:02;;;;;;;56.05;27.40;;;;;;;0.16;70.66;100040.25;2153234;80;31143;-65
2021/01/12 00:54:13;;;;;;;58.13;27.20;;;;;;;0.12;70.57;100025.36;2103705;81;32870;-66
2021/01/12 00:57:15;;;;;;;57.00;27.42;;;;;;;0.12;70.67;100028.89;2186387;80;27976;-62
2021/01/12 01:00:19;;;;;;;54.53;27.48;;;;;;;0.09;70.68;100024.07;2115570;81;27783;-68
2021/01/12 01:03:22;;;;;;;54.38;26.85;;;;;;;0.08;70.61;100019.27;2130356;81;28900;-69
2021/01/12 01:06:25;;;;;;;53.92;26.33;;;;;;;0.04;70.54;100013.59;2134881;81;32127;-62
2021/01/12 01:09:27;;;;;;;47.10;22.93;;;;;;;-0.01;70.53;100003.13;2115553;82;32936;-63
2021/01/12 01:12:30;;;;;;;48.85;22.37;;;;;;;-0.07;70.24;99986.06;2129485;81;28666;-63
2021/01/12 01:15:32;;;;;;;48.05;22.98;;;;;;;-0.12;70.02;99978.68;2131697;82;27273;-70
2021/01/12 01:18:34;;;;;;;45.10;22.10;;;;;;;-0.16;70.16;99979.14;2096202;81;28663;-65
2021/01/12 01:21:37;;;;;;;45.35;22.22;;;;;;;-0.16;70.23;99976.50;2162566;80;30767;-67
2021/01/12 01:24:39;;;;;;;41.75;20.37;;;;;;;-0.15;70.23;99965.55;2117306;82;33243;-67
2021/01/12 01:27:45;;;;;;;37.75;19.40;;;;;;;-0.14;70.01;99965.09;2139051;81;30364;-67
2021/01/12 01:30:49;;;;;;;39.15;19.23;;;;;;;-0.13;70.04;99972.98;2159494;81;27747;-66
2021/01/12 01:33:51;;;;;;;31.45;16.90;;;;;;;-0.08;69.99;99979.51;2124552;81;28599;-64
2021/01/12 01:37:00;;;;;;;31.33;16.93;;;;;;;-0.05;69.83;99977.70;2171890;81;31258;-63
2021/01/12 01:40:05;;;;;;;32.85;16.62;;;;;;;-0.02;69.81;99979.45;2148888;82;33555;-65
2021/01/12 01:43:08;;;;;;;29.27;15.95;;;;;;;0.04;69.83;99971.46;2130421;81;29614;-64
2021/01/12 01:46:10;;;;;;;27.37;15.20;;;;;;;0.06;69.59;99966.20;2141923;82;27615;-70
2021/01/12 01:49:12;;;;;;;29.12;15.13;;;;;;;0.08;69.43;99959.16;2168281;81;30204;-68
2021/01/12 01:52:34;;;;;;;27.15;14.53;;;;;;;0.09;69.18;99948.59;2147162;81;31920;-72
2021/01/12 01:55:38;;;;;;;26.15;14.63;;;;;;;0.12;69.37;99948.55;2005550;87;33125;-72
2021/01/12 01:58:41;;;;;;;27.15;15.03;;;;;;;0.16;69.25;99949.38;2013789;86;28886;-72
2021/01/12 02:01:45;;;;;;;28.07;15.53;;;;;;;0.20;69.41;99943.19;1956235;87;27675;-67
2021/01/12 02:04:47;;;;;;;28.75;15.98;;;;;;;0.25;69.11;99936.53;1966715;88;28850;-67
2021/01/12 02:07:51;;;;;;;29.15;15.83;;;;;;;0.26;69.16;99925.96;2018844;87;32082;-67
2021/01/12 02:10:57;;;;;;;30.20;16.45;;;;;;;0.28;69.13;99932.08;1981753;87;33857;-63
2021/01/12 02:14:03;;;;;;;29.23;15.10;;;;;;;0.27;68.90;99911.05;1984399;86;28872;-67
2021/01/12 02:17:07;;;;;;;30.72;16.40;;;;;;;0.31;68.95;99916.70;1963331;88;27667;-62
2021/01/12 02:20:11;;;;;;;28.32;15.35;;;;;;;0.34;68.97;99915.78;1980424;88;28451;-69
2021/01/12 02:23:23;;;;;;;25.10;14.35;;;;;;;0.34;68.83;99907.41;2000913;87;30944;-69
2021/01/12 02:26:26;;;;;;;27.70;14.68;;;;;;;0.35;68.76;99909.62;2063619;84;34097;-65
2021/01/12 02:29:28;;;;;;;26.27;14.33;;;;;;;0.34;68.68;99912.68;2095572;84;28868;-65
2021/01/12 02:32:30;;;;;;;24.72;13.90;;;;;;;0.32;68.45;99901.33;2002059;87;27831;-66
2021/01/12 02:35:37;;;;;;;24.30;13.45;;;;;;;0.30;68.54;99902.64;2033820;85;28919;-68
2021/01/12 02:38:40;;;;;;;26.87;14.35;;;;;;;0.30;68.21;99901.78;2077945;84;33052;-63
2021/01/12 02:41:42;;;;;;;27.25;15.58;;;;;;;0.26;68.29;99893.48;2042282;84;34013;-70
2021/01/12 02:44:45;;;;;;;30.50;15.78;;;;;;;0.21;68.11;99881.71;1994271;88;28637;-66
2021/01/12 02:47:48;;;;;;;33.33;17.20;;;;;;;0.18;68.25;99876.48;1993451;88;27691;-65
2021/01/12 02:50:50;;;;;;;24.75;14.15;;;;;;;0.17;68.19;99876.52;2042822;87;29346;-72
2021/01/12 02:53:54;;;;;;;28.25;15.60;;;;;;;0.14;68.19;99859.86;2048440;86;31067;-74
2021/01/12 02:56:56;;;;;;;28.25;15.58;;;;;;;0.11;68.00;99859.89;2067887;85;33870;-75
2021/01/12 02:59:58;;;;;;;27.32;14.28;;;;;;;0.09;68.21;99859.03;2065468;85;29836;-74
2021/01/12 03:03:00;;;;;;;24.23;13.70;;;;;;;0.08;68.09;99847.22;2044321;86;27736;-63
2021/01/12 03:06:02;;;;;;;24.10;13.83;;;;;;;0.05;68.02;99838.04;2003781;85;28408;-61
2021/01/12 03:09:05;;;;;;;24.25;12.43;;;;;;;0.03;68.18;99831.92;2011727;86;31810;-63
2021/01/12 03:12:08;;;;;;;24.12;13.38;;;;;;;-0.02;68.06;99821.00;2074277;85;33121;-65
2021/01/12 03:15:13;;;;;;;22.65;13.32;;;;;;;-0.02;67.99;99821.45;2003225;85;28455;-62
2021/01/12 03:18:15;;;;;;;22.00;12.77;;;;;;;-0.01;68.27;99819.25;2042883;86;27798;-68
2021/01/12 03:21:18;;;;;;;22.25;11.85;;;;;;;0.00;68.07;99818.36;1985405;85;28788;-63
2021/01/12 03:24:20;;;;;;;25.85;13.45;;;;;;;0.03;68.31;99805.59;2039330;85;30931;-68
2021/01/12 03:27:23;;;;;;;24.32;13.65;;;;;;;0.00;68.12;99799.93;2056281;85;32902;-64
2021/01/12 03:30:27;;;;;;;25.75;13.90;;;;;;;0.02;68.20;99798.11;2070745;85;28891;-60
2021/01/12 03:33:30;;;;;;;23.45;12.80;;;;;;;0.05;68.28;99798.08;2062661;85;27642;-62
2021/01/12 03:36:32;;;;;;;25.52;14.33;;;;;;;0.06;68.15;99787.11;2026894;85;29054;-68
2021/01/12 03:39:35;;;;;;;30.02;13.58;;;;;;;0.07;68.20;99782.27;2062009;85;31451;-70
2021/01/12 03:42:37;;;;;;;24.35;13.28;;;;;;;0.06;68.08;99779.21;2019949;86;33705;-62
2021/01/12 03:45:39;;;;;;;25.48;13.93;;;;;;;0.07;68.04;99775.22;2041434;86;29683;-66
2021/01/12 03:48:41;;;;;;;23.62;14.40;;;;;;;0.07;68.19;99776.55;2060545;85;27704;-62
2021/01/12 03:51:43;;;;;;;28.40;14.30;;;;;;;0.09;68.30;99773.88;2024312;85;28851;-62
2021/01/12 03:54:45;;;;;;;22.40;13.93;;;;;;;0.11;68.15;99768.14;2048842;85;30970;-63
2021/01/12 03:57:48;;;;;;;21.62;13.80;;;;;;;0.09;68.00;99756.75;2048608;86;33734;-69
2021/01/12 04:00:50;;;;;;;26.23;13.93;;;;;;;0.04;67.89;99743.66;2037748;85;28954;-62
2021/01/12 04:03:52;;;;;;;23.27;13.93;;;;;;;0.02;68.05;99750.72;2011564;87;27711;-63
2021/01/12 04:06:54;;;;;;;26.77;14.58;;;;;;;0.02;68.09;99743.28;1968678;87;28651;-67
2021/01/12 04:09:56;;;;;;;25.82;14.93;;;;;;;0.00;68.14;99744.63;1991472;87;30976;-62
2021/01/12 04:13:01;;;;;;;28.40;15.43;;;;;;;-0.01;68.23;99742.42;2020684;85;33471;-63
2021/01/12 04:16:04;;;;;;;29.32;15.35;;;;;;;-0.01;68.10;99745.06;2019612;87;27816;-62
2021/01/12 04:19:06;;;;;;;28.92;14.00;;;;;;;-0.03;68.26;99734.99;2046465;85;27716;-61
2021/01/12 04:22:08;;;;;;;22.93;13.62;;;;;;;-0.01;68.16;99736.30;1994438;87;28924;-61
2021/01/12 04:25:12;;;;;;;26.37;14.93;;;;;;;-0.02;68.07;99728.84;2054643;84;30686;-69
2021/01/12 04:28:14;;;;;;;27.42;14.75;;;;;;;0.01;68.05;99717.84;2019010;87;33227;-69
2021/01/12 04:31:16;;;;;;;24.85;14.05;;;;;;;0.01;68.05;99703.35;2028467;84;28962;-61
2021/01/12 04:34:18;;;;;;;25.10;13.65;;;;;;;0.01;68.03;99705.52;1991377;87;28223;-63
2021/01/12 04:37:20;;;;;;;24.05;14.45;;;;;;;0.02;67.89;99711.22;2071284;85;29268;-68
2021/01/12 04:40:23;;;;;;;22.65;13.65;;;;;;;0.02;67.95;99708.58;2015831;87;32542;-61
2021/01/12 04:43:25;;;;;;;25.52;13.40;;;;;;;0.03;68.09;99699.79;2029582;86;33335;-62
2021/01/12 04:46:27;;;;;;;21.23;13.00;;;;;;;0.03;68.02;99686.63;2006381;87;29291;-62
2021/01/12 04:49:29;;;;;;;29.77;13.78;;;;;;;0.05;67.97;99694.05;2006831;87;27719;-62
2021/01/12 04:52:49;;;;;;;25.02;14.38;;;;;;;0.06;67.97;99687.89;1982390;87;30203;-61
2021/01/12 04:55:55;;;;;;;26.82;13.95;;;;;;;0.07;67.92;99687.47;2013464;87;30926;-61
2021/01/12 04:58:57;;;;;;;23.15;13.28;;;;;;;0.05;67.99;99677.41;2019457;87;33122;-62
2021/01/12 05:02:01;;;;;;;27.02;13.80;;;;;;;0.07;67.90;99682.20;2063920;85;28896;-62
2021/01/12 05:05:05;;;;;;;25.57;13.45;;;;;;;0.05;67.90;99674.30;2077852;85;27627;-62
2021/01/12 05:08:10;;;;;;;16.93;9.53;;;;;;;0.06;67.63;99665.97;2036331;85;29598;-62
2021/01/12 05:11:13;;;;;;;22.30;12.75;;;;;;;0.05;67.72;99655.02;2054598;85;31134;-61
2021/01/12 05:14:16;;;;;;;19.87;11.88;;;;;;;0.03;67.35;99648.44;1997829;87;33612;-61
2021/01/12 05:17:20;;;;;;;20.40;11.73;;;;;;;0.03;67.46;99640.55;2063952;85;28961;-62
2021/01/12 05:20:26;;;;;;;22.22;13.58;;;;;;;0.03;67.03;99624.74;2064031;85;27949;-61
2021/01/12 05:23:28;;;;;;;;;;;;;;;0.01;66.94;99619.95;2030467;85;28372;-62
2021/01/12 05:26:37;;;;;;;21.93;11.38;;;;;;;0.00;66.52;99607.70;2077723;85;31224;-62
2021/01/12 05:29:41;;;;;;;25.95;14.45;;;;;;;-0.03;66.38;99603.34;2057226;85;34507;-62
2021/01/12 05:32:45;;;;;;;18.90;10.08;;;;;;;-0.06;66.34;99589.37;2029075;85;29142;-62
2021/01/12 05:35:49;;;;;;;19.33;11.67;;;;;;;-0.07;65.94;99595.06;2064188;85;27702;-62
2021/01/12 05:38:53;;;;;;;17.67;10.03;;;;;;;-0.09;66.07;99593.37;2049567;85;29786;-62
2021/01/12 05:41:57;;;;;;;18.92;11.22;;;;;;;-0.09;65.47;99588.10;2063930;85;31162;-62
2021/01/12 05:44:59;;;;;;;16.85;10.08;;;;;;;-0.08;65.95;99582.80;2049422;85;33858;-65
2021/01/12 05:48:01;;;;;;;25.68;12.88;;;;;;;-0.06;65.86;99577.06;2039761;85;29601;-63
2021/01/12 05:51:08;;;;;;;16.32;10.28;;;;;;;-0.04;65.93;99573.95;2048661;85;27751;-62
2021/01/12 05:54:48;;;;;;;17.92;10.63;;;;;;;-0.02;65.91;99564.27;2076646;85;30041;-62
2021/01/12 05:57:53;;;;;;;19.77;10.55;;;;;;;0.01;65.81;99559.38;2030489;87;32029;-62
2021/01/12 06:00:58;;;;;;;20.40;11.95;;;;;;;0.02;65.70;99555.86;2052757;86;32922;-62
2021/01/12 06:04:04;;;;;;;18.48;10.45;;;;;;;0.04;65.67;99559.80;2080194;85;29147;-62
2021/01/12 06:07:06;;;;;;;21.15;11.30;;;;;;;0.03;65.36;99563.32;2102452;84;27692;-62
2021/01/12 06:10:11;;;;;;;20.92;11.95;;;;;;;0.02;65.61;99563.75;2086814;84;29337;-62
2021/01/12 06:13:18;;;;;;;16.45;9.38;;;;;;;0.03;65.71;99556.28;2061211;84;31923;-62
2021/01/12 06:16:23;;;;;;;37.05;19.20;;;;;;;0.10;65.82;99550.45;2058770;84;34044;-61
2021/01/12 06:19:27;;;;;;;21.87;11.85;;;;;;;0.15;66.00;99544.66;2114838;83;30095;-62
2021/01/12 06:22:35;;;;;;;24.10;12.40;;;;;;;0.21;66.02;99550.24;2031141;85;32827;-61
2021/01/12 06:25:38;;;;;;;25.55;12.70;;;;;;;0.27;66.21;99552.30;2078677;85;28841;-62
2021/01/12 06:28:43;;;;;;;21.97;11.80;;;;;;;0.35;66.01;99548.20;2052531;85;32552;-62
2021/01/12 06:31:47;;;;;;;;;;;;;;;0.39;66.06;99548.56;2103295;84;33962;-66
2021/01/12 06:34:52;;;;;;;19.25;11.03;;;;;;;0.45;65.94;99543.19;2075070;85;29390;-62
2021/01/12 06:37:55;;;;;;;22.67;12.73;;;;;;;0.51;65.85;99541.30;2034406;85;27684;-66
2021/01/12 06:40:58;;;;;;;19.73;11.28;;;;;;;0.57;65.66;99537.23;2043274;87;28847;-63
2021/01/12 06:44:04;;;;;;;22.48;11.88;;;;;;;0.61;65.67;99533.64;2016400;87;31362;-62
2021/01/12 06:47:09;;;;;;;24.45;10.85;;;;;;;0.66;65.54;99531.78;2039913;85;32943;-61
2021/01/12 06:50:14;;;;;;;42.05;17.00;;;;;;;0.69;65.76;99530.84;2051841;84;29397;-62
2021/01/12 06:53:16;;;;;;;50.88;16.20;;;;;;;0.77;65.82;99529.35;2100433;83;27645;-62
2021/01/12 06:56:24;;;;;;;54.15;19.70;;;;;;;0.81;65.84;99531.03;2021139;85;28844;-61
2021/01/12 06:59:36;;;;;;;37.80;15.93;;;;;;;0.86;65.91;99527.81;2024410;85;30969;-62
2021/01/12 07:02:39;;;;;;;22.90;12.03;;;;;;;0.90;65.76;99526.85;2026399;84;32367;-61
2021/01/12 07:05:44;;;;;;;19.77;10.68;;;;;;;0.91;65.67;99519.36;2016448;85;29253;-61
2021/01/12 07:08:50;;;;;;;18.75;10.50;;;;;;;0.93;65.30;99520.63;2035879;85;27771;-61
2021/01/12 07:12:05;;;;;;;22.80;12.40;;;;;;;0.95;65.46;99517.52;2035229;85;28612;-61
2021/01/12 07:15:11;;;;;;;25.72;12.78;;;;;;;0.96;65.45;99508.70;2072652;84;31150;-62
2021/01/12 07:18:15;;;;;;;29.37;13.48;;;;;;;0.99;65.63;99507.31;2107111;84;33118;-61
2021/01/12 07:21:23;;;;;;;38.40;13.55;;;;;;;1.03;65.70;99511.16;2097647;83;28956;-61
2021/01/12 07:24:26;;;;;;;35.60;14.47;;;;;;;1.08;65.83;99504.91;2068089;85;27776;-62
2021/01/12 07:27:28;;;;;;;50.17;18.45;;;;;;;1.11;65.86;99499.58;2056888;85;28758;-62
2021/01/12 07:30:34;;;;;;;117.17;31.93;;;;;;;1.14;65.71;99499.04;1991581;85;30967;-62
2021/01/12 07:33:38;;;;;;;69.40;23.02;;;;;;;1.19;65.79;99485.30;2110878;82;33123;-61
2021/01/12 07:36:41;;;;;;;86.75;25.77;;;;;;;1.25;65.64;99487.34;2081460;84;29197;-61
2021/01/12 07:39:45;;;;;;;48.55;18.60;;;;;;;1.28;65.60;99477.61;2121661;83;27644;-61
2021/01/12 07:42:54;;;;;;;64.03;19.15;;;;;;;1.34;65.67;99474.80;2121638;82;29784;-61
2021/01/12 07:45:57;;;;;;;82.90;25.00;;;;;;;1.37;65.30;99469.91;1995908;85;32033;-62
2021/01/12 07:49:01;;;;;;;71.62;22.02;;;;;;;1.40;65.49;99470.28;2038953;84;32919;-61
2021/01/12 07:52:05;;;;;;;87.27;25.88;;;;;;;1.43;65.51;99458.33;2007085;86;29166;-61
2021/01/12 07:55:10;;;;;;;71.57;25.85;;;;;;;1.46;65.57;99459.58;2047777;86;27611;-61
2021/01/12 07:58:17;;;;;;;53.17;18.10;;;;;;;1.49;65.56;99451.11;2017514;87;28713;-61
2021/01/12 08:01:26;;;;;;;66.62;25.85;;;;;;;1.54;65.49;99443.53;2035990;85;31241;-62
2021/01/12 08:04:31;;;;;;;101.47;36.83;;;;;;;1.56;65.56;99443.05;2090194;84;33168;-61
2021/01/12 08:07:34;;;;;;;75.80;27.85;;;;;;;1.60;65.55;99442.03;2115870;82;29222;-62
2021/01/12 08:10:40;;;;;;;75.00;27.48;;;;;;;1.64;65.42;99441.94;2094566;84;27726;-61
2021/01/12 08:13:43;;;;;;;49.25;19.17;;;;;;;1.68;65.60;99440.06;2074553;84;29224;-62
2021/01/12 08:16:46;;;;;;;77.47;28.87;;;;;;;1.70;65.42;99436.05;2115177;83;31145;-61
2021/01/12 08:19:49;;;;;;;62.50;22.07;;;;;;;1.75;65.34;99427.09;2110425;83;32941;-62
2021/01/12 08:22:56;;;;;;;39.05;16.52;;;;;;;1.79;65.33;99429.22;2092460;84;29599;-61
2021/01/12 08:25:58;;;;;;;35.70;16.57;;;;;;;1.82;65.40;99426.03;2084704;83;27784;-61
2021/01/12 08:29:01;;;;;;;27.80;14.25;;;;;;;1.88;65.53;99424.14;2111072;83;28827;-62
2021/01/12 08:32:06;;;;;;;41.33;16.97;;;;;;;1.92;65.43;99419.16;2113800;82;32035;-62
2021/01/12 08:35:13;;;;;;;29.25;14.00;;;;;;;1.97;65.54;99422.54;2092466;84;32939;-63
2021/01/12 08:38:16;;;;;;;24.07;13.10;;;;;;;2.02;65.67;99412.72;2100837;83;28976;-62
2021/01/12 08:41:19;;;;;;;21.17;11.22;;;;;;;2.06;65.47;99413.05;2100275;84;27805;-62
2021/01/12 08:44:23;;;;;;;29.82;14.47;;;;;;;2.09;65.63;99405.00;2051524;85;29700;-61
2021/01/12 08:47:29;;;;;;;50.65;21.82;;;;;;;2.12;65.39;99397.47;2036273;84;31638;-68
2021/01/12 08:50:32;;;;;;;31.73;16.30;;;;;;;2.15;65.72;99405.74;2124828;82;33113;-67
2021/01/12 08:57:04;;;;;;;39.70;22.33;;;;;;;2.19;65.81;99397.67;1970950;90;27852;-69
2021/01/12 09:00:18;;;;;;;52.73;28.10;;;;;;;2.26;65.77;99385.14;2235638;77;27639;-67
2021/01/12 09:03:25;;;;;;;50.58;25.40;;;;;;;2.26;65.79;99388.66;2212025;80;27927;-65
2021/01/12 09:06:27;;;;;;;48.87;26.40;;;;;;;2.29;65.88;99385.05;2214802;80;29773;-67
2021/01/12 09:09:29;;;;;;;56.35;29.75;;;;;;;2.32;65.73;99382.32;2133975;80;30963;-66
2021/01/12 09:12:32;;;;;;;69.85;39.78;;;;;;;2.36;65.85;99375.16;2211388;80;33984;-64
2021/01/12 09:18:42;;;;;;;55.57;25.83;;;;;;;2.45;65.96;99364.31;2296135;77;27690;-68
2021/01/12 09:21:45;;;;;;;68.80;35.48;;;;;;;2.43;65.90;99369.63;2205113;78;28173;-66
2021/01/12 09:24:51;;;;;;;46.37;20.55;;;;;;;2.45;66.17;99356.38;2163639;80;28825;-65
2021/01/12 09:27:53;;;;;;;28.95;14.63;;;;;;;2.47;66.19;99360.28;2147601;80;31712;-65
2021/01/12 09:31:11;;;;;;;35.30;17.07;;;;;;;2.46;66.05;99360.76;2052433;83;32919;-66
2021/01/12 09:34:21;;;;;;;38.55;16.93;;;;;;;2.46;66.09;99352.83;2013912;88;28540;-66
2021/01/12 09:37:24;;;;;;;35.33;17.75;;;;;;;2.45;65.97;99344.48;2020370;87;27759;-68
2021/01/12 09:40:26;;;;;;;34.10;17.73;;;;;;;2.47;66.08;99337.37;2033519;85;29565;-67
2021/01/12 09:43:31;;;;;;;38.33;17.48;;;;;;;2.50;66.05;99338.58;2080435;85;31712;-63
2021/01/12 09:46:36;;;;;;;30.05;15.48;;;;;;;2.55;66.10;99333.16;1995779;87;33868;-66
2021/01/12 09:49:38;;;;;;;25.05;13.70;;;;;;;2.58;65.89;99319.81;2056284;85;29081;-65
2021/01/12 09:52:41;;;;;;;33.35;16.75;;;;;;;2.60;65.52;99319.78;2065022;84;27811;-63
2021/01/12 09:55:43;;;;;;;33.28;18.37;;;;;;;2.60;65.67;99311.86;2040450;85;28626;-63
2021/01/12 09:58:46;;;;;;;60.55;29.40;;;;;;;2.66;65.79;99308.55;2040393;85;30979;-68
2021/01/12 10:01:57;;;;;;;76.15;38.55;;;;;;;2.72;65.78;99300.42;2063803;85;33059;-67
2021/01/12 10:05:11;;;;;;;63.33;32.03;;;;;;;2.86;65.85;99290.67;2285364;77;27931;-67
2021/01/12 10:08:13;;;;;;;83.72;43.80;;;;;;;2.90;65.62;99292.75;2254687;78;27755;-64
2021/01/12 10:11:17;;;;;;;62.45;31.12;;;;;;;2.96;65.62;99283.76;2204660;79;29800;-64
2021/01/12 10:14:24;;;;;;;81.30;38.88;;;;;;;3.01;65.41;99278.70;2182336;80;30865;-69
2021/01/12 10:17:27;;;;;;;56.30;30.08;;;;;;;3.05;65.37;99275.48;2161283;80;32910;-63
2021/01/12 10:20:31;;;;;;;73.85;32.60;;;;;;;3.05;64.95;99275.48;2188207;80;29970;-64
2021/01/12 10:23:33;;;;;;;44.05;20.88;;;;;;;3.04;65.26;99269.34;2158678;78;27755;-64
2021/01/12 10:26:37;;;;;;;49.90;21.30;;;;;;;3.08;65.07;99265.23;2145707;78;28798;-62
2021/01/12 10:29:40;;;;;;;72.05;26.87;;;;;;;3.11;65.14;99259.41;2185311;78;30921;-62
2021/01/12 10:32:49;;;;;;;82.92;29.77;;;;;;;3.14;65.22;99259.30;2227507;78;33115;-62
2021/01/12 10:35:52;;;;;;;62.73;26.65;;;;;;;3.18;65.07;99257.39;2187255;80;29289;-60
2021/01/12 10:38:54;;;;;;;90.05;35.03;;;;;;;3.16;64.94;99260.55;2176933;78;28268;-62
2021/01/12 10:41:57;;;;;;;82.70;35.10;;;;;;;3.15;64.58;99247.77;2153050;78;28709;-61
2021/01/12 10:45:00;;;;;;;72.85;31.07;;;;;;;3.16;64.81;99242.03;2119593;81;32093;-62
2021/01/12 10:48:05;;;;;;;77.40;30.00;;;;;;;3.17;65.01;99235.34;2097342;81;33534;-62
2021/01/12 10:51:07;;;;;;;37.45;18.62;;;;;;;3.17;64.79;99234.02;2126609;80;29865;-64
2021/01/12 10:54:09;;;;;;;39.80;18.30;;;;;;;3.16;64.83;99228.32;2113676;81;27721;-63
2021/01/12 10:57:12;;;;;;;40.78;19.35;;;;;;;3.18;64.92;99221.20;2095508;83;29859;-61
2021/01/12 11:00:20;;;;;;;50.20;23.18;;;;;;;3.22;64.68;99218.00;2127358;82;32156;-66
2021/01/12 11:03:23;;;;;;;46.55;22.60;;;;;;;3.22;64.55;99214.47;2090530;83;34328;-61
2021/01/12 11:06:40;;;;;;;39.87;20.13;;;;;;;3.19;64.61;99208.84;2104912;81;28859;-62
2021/01/12 11:09:44;;;;;;;81.78;34.58;;;;;;;3.17;64.65;99197.45;2153883;81;27814;-62
2021/01/12 11:12:47;;;;;;;56.30;27.13;;;;;;;3.13;64.93;99195.83;2141907;81;30678;-60
2021/01/12 11:15:50;;;;;;;50.20;24.27;;;;;;;3.10;65.11;99184.91;2128307;82;31150;-63
2021/01/12 11:18:54;;;;;;;79.30;30.62;;;;;;;3.03;64.98;99177.66;2114194;82;34236;-61
2021/01/12 11:21:57;;;;;;;36.88;17.60;;;;;;;3.00;65.25;99174.23;2114504;82;29073;-62
2021/01/12 11:25:05;;;;;;;58.90;23.85;;;;;;;2.97;65.22;99175.70;2133659;80;28354;-61
2021/01/12 11:28:07;;;;;;;22.67;14.47;;;;;;;2.91;65.32;99173.27;2149197;79;30081;-62
2021/01/12 11:31:10;;;;;;;63.00;24.37;;;;;;;2.88;65.60;99168.96;2184432;79;31157;-61
2021/01/12 11:34:14;;;;;;;65.83;25.37;;;;;;;2.86;65.77;99165.03;2189874;79;33272;-62
2021/01/12 11:37:17;;;;;;;45.88;21.02;;;;;;;2.84;65.71;99158.08;2217784;79;28917;-61
2021/01/12 11:40:27;;;;;;;55.55;22.25;;;;;;;2.81;65.82;99155.54;2157403;80;27650;-61
2021/01/12 11:43:30;;;;;;;46.50;20.35;;;;;;;2.80;65.81;99144.56;2107921;82;29428;-62
2021/01/12 11:46:33;;;;;;;56.50;24.30;;;;;;;2.81;65.82;99135.70;2082228;82;31685;-62
2021/01/12 11:49:36;;;;;;;41.37;21.33;;;;;;;2.81;65.57;99127.33;2146222;82;33126;-61
2021/01/12 11:52:39;;;;;;;34.25;18.05;;;;;;;2.85;65.64;99124.95;2122949;82;28857;-61
2021/01/12 11:55:42;;;;;;;44.00;22.77;;;;;;;2.87;65.62;99126.23;2107463;82;27731;-61
2021/01/12 11:58:44;;;;;;;60.83;40.28;;;;;;;2.88;65.30;99115.58;2116990;82;28609;-61
2021/01/12 12:01:49;;;;;;;58.30;39.95;;;;;;;2.91;65.37;99113.27;2087417;85;31153;-61
2021/01/12 12:05:13;;;;;;;65.22;40.15;;;;;;;2.96;65.48;99115.77;2086857;84;33111;-61
2021/01/12 12:08:26;;;;;;;27.50;15.97;;;;;;;3.07;65.49;99109.60;2297392;77;27754;-62
2021/01/12 12:11:37;;;;;;;31.60;14.53;;;;;;;3.05;65.31;99112.77;2174700;78;27686;-61
2021/01/12 12:14:41;;;;;;;31.60;16.40;;;;;;;3.07;65.33;99111.37;2196546;78;29410;-61
2021/01/12 12:17:45;;;;;;;30.15;15.95;;;;;;;3.05;65.71;99114.09;2257511;78;32108;-61
2021/01/12 12:20:48;;;;;;;30.70;17.90;;;;;;;3.08;66.00;99109.13;2218679;78;32694;-61
2021/01/12 12:23:51;;;;;;;25.10;15.10;;;;;;;3.06;65.98;99109.20;2137605;80;29480;-61
2021/01/12 12:26:56;;;;;;;23.80;14.43;;;;;;;2.99;66.15;99110.34;2166885;80;27642;-63
2021/01/12 12:29:59;;;;;;;28.70;16.10;;;;;;;2.96;66.58;99095.93;2162601;80;30030;-61
2021/01/12 12:33:02;;;;;;;26.02;14.45;;;;;;;3.00;66.97;99101.04;2191878;80;32589;-61
2021/01/12 12:36:15;;;;;;;24.10;14.65;;;;;;;3.04;67.03;99096.05;2166135;80;33189;-62
2021/01/12 12:39:18;;;;;;;25.62;14.95;;;;;;;3.08;67.11;99092.81;2135539;80;29379;-61
2021/01/12 12:42:21;;;;;;;28.92;16.82;;;;;;;3.11;67.31;99087.41;2140980;81;27797;-62
2021/01/12 12:45:24;;;;;;;27.42;16.70;;;;;;;3.16;67.60;99088.55;2157911;81;28800;-62
2021/01/12 12:48:27;;;;;;;28.07;16.70;;;;;;;3.19;67.57;99081.81;2095039;78;30967;-62
2021/01/12 12:51:30;;;;;;;25.57;16.82;;;;;;;3.17;67.66;99087.14;2157900;80;33343;-61
2021/01/12 12:54:32;;;;;;;29.57;18.57;;;;;;;3.15;67.82;99073.11;2113342;81;28640;-63
2021/01/12 12:57:35;;;;;;;31.87;19.25;;;;;;;3.14;68.02;99070.53;2081799;81;27711;-62
2021/01/12 13:00:39;;;;;;;25.23;16.52;;;;;;;3.07;68.04;99067.27;2147687;80;28197;-61
2021/01/12 13:03:42;;;;;;;19.80;13.68;;;;;;;3.05;68.28;99067.78;2122625;81;31153;-64
2021/01/12 13:06:52;;;;;;;22.95;14.45;;;;;;;2.99;68.27;99066.24;2127982;81;33844;-64
2021/01/12 13:10:06;;;;;;;22.07;13.50;;;;;;;3.02;68.66;99058.19;2345297;74;27794;-65
2021/01/12 13:13:09;;;;;;;31.10;19.40;;;;;;;3.00;68.71;99053.86;2243760;77;27898;-65
2021/01/12 13:16:12;;;;;;;38.40;21.60;;;;;;;3.00;68.83;99047.25;2189675;77;29483;-64
2021/01/12 13:19:17;;;;;;;48.15;25.08;;;;;;;3.00;68.82;99049.45;2231923;77;31129;-63
2021/01/12 13:22:21;;;;;;;22.90;14.70;;;;;;;2.97;68.88;99041.63;2206242;78;33091;-64
2021/01/12 13:25:25;;;;;;;17.67;13.85;;;;;;;2.96;68.85;99038.58;2241806;77;28405;-67
2021/01/12 13:28:28;;;;;;;14.07;10.00;;;;;;;2.94;68.94;99039.57;2210245;77;27745;-67
2021/01/12 13:31:30;;;;;;;20.02;14.45;;;;;;;2.97;69.10;99028.88;2207819;77;28899;-71
2021/01/12 13:34:33;;;;;;;50.23;24.67;;;;;;;2.98;69.08;99031.92;2184851;78;31930;-67
2021/01/12 13:37:35;;;;;;;61.73;28.40;;;;;;;3.01;69.21;99026.05;2239361;77;33231;-66
2021/01/12 13:40:37;;;;;;;68.70;31.30;;;;;;;3.05;69.04;99017.52;2217100;77;29072;-63
2021/01/12 13:43:40;;;;;;;85.00;37.85;;;;;;;3.03;68.90;99013.62;2188767;77;28309;-64
2021/01/12 13:46:43;;;;;;;77.32;36.95;;;;;;;3.04;68.94;99010.50;2231662;77;29695;-65
2021/01/12 13:49:47;;;;;;;72.85;36.42;;;;;;;3.00;68.79;99006.24;2261305;77;31536;-66
2021/01/12 13:52:52;;;;;;;48.13;28.80;;;;;;;2.97;68.73;99001.09;2209921;77;34139;-62
2021/01/12 13:55:55;;;;;;;34.53;19.90;;;;;;;2.92;68.70;99004.38;2194169;77;28805;-64
2021/01/12 13:58:58;;;;;;;32.73;22.50;;;;;;;2.91;68.83;99001.33;2203456;77;27756;-65
2021/01/12 14:02:02;;;;;;;29.72;16.52;;;;;;;2.90;68.81;98997.80;2220366;78;28759;-70
2021/01/12 14:05:05;;;;;;;33.23;17.80;;;;;;;2.89;68.83;98994.79;2204216;78;32037;-64
2021/01/12 14:08:08;;;;;;;29.15;16.25;;;;;;;2.88;69.00;98991.73;2239336;77;33196;-66
2021/01/12 14:11:10;;;;;;;53.90;36.20;;;;;;;2.89;69.12;98988.17;2214385;77;28628;-65
2021/01/12 14:14:15;;;;;;;28.17;17.98;;;;;;;2.88;69.16;98991.27;2265935;75;28647;-65
2021/01/12 14:17:19;;;;;;;28.65;15.00;;;;;;;2.87;69.17;98986.05;2230153;75;28707;-65
2021/01/12 14:20:23;;;;;;;58.92;35.88;;;;;;;2.86;69.32;98986.97;2263502;75;30923;-67
2021/01/12 14:23:27;;;;;;;53.48;26.70;;;;;;;2.88;69.38;98983.80;2254764;77;35259;-67